sensor_id;sensor_type;location;lat;lon;timestamp;temperature;humidity
28763;DHT22;15918;51.270;6.522;2023-08-08T00:00:07;19.10;62.80
28763;DHT22;15918;51.270;6.522;2023-08-08T00:02:34;19.10;62.70
28763;DHT22;15918;51.270;6.522;2023-08-08T00:05:00;19.10;62.60
28763;DHT22;15918;51.270;6.522;2023-08-08T00:07:26;19.00;62.50
28763;DHT22;15918;51.270;6.522;2023-08-08T00:09:55;19.10;62.50
28763;DHT22;15918;51.270;6.522;2023-08-08T00:12:21;19.10;62.60
28763;DHT22;15918;51.270;6.522;2023-08-08T00:14:47;19.00;62.50
28763;DHT22;15918;51.270;6.522;2023-08-08T00:17:13;19.00;62.50
28763;DHT22;15918;51.270;6.522;2023-08-08T00:19:39;19.00;62.40
28763;DHT22;15918;51.270;6.522;2023-08-08T00:22:04;19.00;62.30
28763;DHT22;15918;51.270;6.522;2023-08-08T00:24:30;19.00;62.30
28763;DHT22;15918;51.270;6.522;2023-08-08T00:27:11;19.00;62.40
28763;DHT22;15918;51.270;6.522;2023-08-08T00:29:37;19.00;62.40
28763;DHT22;15918;51.270;6.522;2023-08-08T00:32:03;19.00;62.30
28763;DHT22;15918;51.270;6.522;2023-08-08T00:34:28;18.90;62.30
28763;DHT22;15918;51.270;6.522;2023-08-08T00:36:54;18.90;62.30
28763;DHT22;15918;51.270;6.522;2023-08-08T00:39:19;18.90;62.40
28763;DHT22;15918;51.270;6.522;2023-08-08T00:41:45;18.90;62.50
28763;DHT22;15918;51.270;6.522;2023-08-08T00:44:10;18.90;62.50
28763;DHT22;15918;51.270;6.522;2023-08-08T00:46:36;18.90;62.50
28763;DHT22;15918;51.270;6.522;2023-08-08T00:49:02;18.90;62.50
28763;DHT22;15918;51.270;6.522;2023-08-08T00:51:27;18.90;62.60
28763;DHT22;15918;51.270;6.522;2023-08-08T00:53:54;18.90;62.60
28763;DHT22;15918;51.270;6.522;2023-08-08T00:56:20;18.90;62.70
28763;DHT22;15918;51.270;6.522;2023-08-08T00:58:45;18.90;62.70
28763;DHT22;15918;51.270;6.522;2023-08-08T01:01:12;18.90;62.70
28763;DHT22;15918;51.270;6.522;2023-08-08T01:03:38;18.80;62.60
28763;DHT22;15918;51.270;6.522;2023-08-08T01:06:39;18.80;62.70
28763;DHT22;15918;51.270;6.522;2023-08-08T01:11:46;18.80;62.80
28763;DHT22;15918;51.270;6.522;2023-08-08T01:14:14;18.80;62.90
28763;DHT22;15918;51.270;6.522;2023-08-08T01:16:40;18.80;62.80
28763;DHT22;15918;51.270;6.522;2023-08-08T01:19:08;18.80;62.80
28763;DHT22;15918;51.270;6.522;2023-08-08T01:21:37;18.80;62.70
28763;DHT22;15918;51.270;6.522;2023-08-08T01:24:24;18.80;63.50
28763;DHT22;15918;51.270;6.522;2023-08-08T01:26:55;18.80;63.50
28763;DHT22;15918;51.270;6.522;2023-08-08T01:29:21;18.70;63.00
28763;DHT22;15918;51.270;6.522;2023-08-08T01:31:47;18.70;62.90
28763;DHT22;15918;51.270;6.522;2023-08-08T01:34:13;18.70;62.80
28763;DHT22;15918;51.270;6.522;2023-08-08T01:36:52;18.70;62.90
28763;DHT22;15918;51.270;6.522;2023-08-08T01:39:25;18.70;62.90
28763;DHT22;15918;51.270;6.522;2023-08-08T01:41:54;18.70;63.00
28763;DHT22;15918;51.270;6.522;2023-08-08T01:44:19;18.70;63.00
28763;DHT22;15918;51.270;6.522;2023-08-08T01:46:46;18.70;63.10
28763;DHT22;15918;51.270;6.522;2023-08-08T01:49:12;18.70;63.20
28763;DHT22;15918;51.270;6.522;2023-08-08T01:51:38;18.70;63.20
28763;DHT22;15918;51.270;6.522;2023-08-08T01:54:03;18.70;63.20
28763;DHT22;15918;51.270;6.522;2023-08-08T01:56:29;18.60;63.10
28763;DHT22;15918;51.270;6.522;2023-08-08T01:58:55;18.70;63.10
28763;DHT22;15918;51.270;6.522;2023-08-08T02:01:20;18.60;63.10
28763;DHT22;15918;51.270;6.522;2023-08-08T02:03:46;18.60;63.10
28763;DHT22;15918;51.270;6.522;2023-08-08T02:06:11;18.60;63.10
28763;DHT22;15918;51.270;6.522;2023-08-08T02:08:37;18.60;63.10
28763;DHT22;15918;51.270;6.522;2023-08-08T02:11:03;18.60;63.00
28763;DHT22;15918;51.270;6.522;2023-08-08T02:13:28;18.60;63.10
28763;DHT22;15918;51.270;6.522;2023-08-08T02:15:54;18.50;63.10
28763;DHT22;15918;51.270;6.522;2023-08-08T02:18:20;18.60;63.20
28763;DHT22;15918;51.270;6.522;2023-08-08T02:20:45;18.50;63.20
28763;DHT22;15918;51.270;6.522;2023-08-08T02:23:11;18.50;63.20
28763;DHT22;15918;51.270;6.522;2023-08-08T02:25:37;18.60;63.30
28763;DHT22;15918;51.270;6.522;2023-08-08T02:28:02;18.60;63.30
28763;DHT22;15918;51.270;6.522;2023-08-08T02:30:28;18.50;63.20
28763;DHT22;15918;51.270;6.522;2023-08-08T02:32:53;18.50;63.40
28763;DHT22;15918;51.270;6.522;2023-08-08T02:35:19;18.50;63.40
28763;DHT22;15918;51.270;6.522;2023-08-08T02:37:44;18.50;63.40
28763;DHT22;15918;51.270;6.522;2023-08-08T02:40:10;18.50;63.60
28763;DHT22;15918;51.270;6.522;2023-08-08T02:42:36;18.50;63.50
28763;DHT22;15918;51.270;6.522;2023-08-08T02:45:01;18.50;63.60
28763;DHT22;15918;51.270;6.522;2023-08-08T02:47:27;18.50;63.60
28763;DHT22;15918;51.270;6.522;2023-08-08T02:49:53;18.40;63.70
28763;DHT22;15918;51.270;6.522;2023-08-08T02:52:18;18.50;63.80
28763;DHT22;15918;51.270;6.522;2023-08-08T02:54:44;18.50;63.80
28763;DHT22;15918;51.270;6.522;2023-08-08T02:57:09;18.50;63.90
28763;DHT22;15918;51.270;6.522;2023-08-08T02:59:38;18.40;63.90
28763;DHT22;15918;51.270;6.522;2023-08-08T03:02:04;18.40;63.90
28763;DHT22;15918;51.270;6.522;2023-08-08T03:04:30;18.40;64.00
28763;DHT22;15918;51.270;6.522;2023-08-08T03:06:55;18.40;64.10
28763;DHT22;15918;51.270;6.522;2023-08-08T03:09:21;18.50;64.20
28763;DHT22;15918;51.270;6.522;2023-08-08T03:11:47;18.40;64.20
28763;DHT22;15918;51.270;6.522;2023-08-08T03:14:13;18.40;64.30
28763;DHT22;15918;51.270;6.522;2023-08-08T03:16:39;18.40;64.30
28763;DHT22;15918;51.270;6.522;2023-08-08T03:19:04;18.40;64.50
28763;DHT22;15918;51.270;6.522;2023-08-08T03:21:30;18.40;64.40
28763;DHT22;15918;51.270;6.522;2023-08-08T03:23:57;18.40;64.50
28763;DHT22;15918;51.270;6.522;2023-08-08T03:26:23;18.40;64.60
28763;DHT22;15918;51.270;6.522;2023-08-08T03:28:49;18.40;64.60
28763;DHT22;15918;51.270;6.522;2023-08-08T03:31:16;18.40;64.50
28763;DHT22;15918;51.270;6.522;2023-08-08T03:33:42;18.40;64.60
28763;DHT22;15918;51.270;6.522;2023-08-08T03:36:09;18.40;64.60
28763;DHT22;15918;51.270;6.522;2023-08-08T03:38:35;18.30;64.60
28763;DHT22;15918;51.270;6.522;2023-08-08T03:41:01;18.30;64.60
28763;DHT22;15918;51.270;6.522;2023-08-08T03:43:26;18.30;64.70
28763;DHT22;15918;51.270;6.522;2023-08-08T03:45:52;18.30;64.70
28763;DHT22;15918;51.270;6.522;2023-08-08T03:48:17;18.30;64.80
28763;DHT22;15918;51.270;6.522;2023-08-08T03:50:43;18.30;64.80
28763;DHT22;15918;51.270;6.522;2023-08-08T03:53:09;18.30;64.80
28763;DHT22;15918;51.270;6.522;2023-08-08T03:55:34;18.30;64.90
28763;DHT22;15918;51.270;6.522;2023-08-08T03:58:00;18.30;65.00
28763;DHT22;15918;51.270;6.522;2023-08-08T04:00:25;18.30;65.10
28763;DHT22;15918;51.270;6.522;2023-08-08T04:02:51;18.30;65.10
28763;DHT22;15918;51.270;6.522;2023-08-08T04:05:17;18.30;65.10
28763;DHT22;15918;51.270;6.522;2023-08-08T04:07:43;18.30;65.20
28763;DHT22;15918;51.270;6.522;2023-08-08T04:10:09;18.30;65.30
28763;DHT22;15918;51.270;6.522;2023-08-08T04:12:34;18.30;65.30
28763;DHT22;15918;51.270;6.522;2023-08-08T04:15:00;18.30;65.40
28763;DHT22;15918;51.270;6.522;2023-08-08T04:17:26;18.30;65.50
28763;DHT22;15918;51.270;6.522;2023-08-08T04:19:51;18.30;65.60
28763;DHT22;15918;51.270;6.522;2023-08-08T04:22:17;18.30;65.60
28763;DHT22;15918;51.270;6.522;2023-08-08T04:24:43;18.30;66.50
28763;DHT22;15918;51.270;6.522;2023-08-08T04:27:09;18.30;65.80
28763;DHT22;15918;51.270;6.522;2023-08-08T04:29:36;18.30;65.90
28763;DHT22;15918;51.270;6.522;2023-08-08T04:32:02;18.30;65.80
28763;DHT22;15918;51.270;6.522;2023-08-08T04:34:27;18.30;66.00
28763;DHT22;15918;51.270;6.522;2023-08-08T04:36:53;18.20;66.00
28763;DHT22;15918;51.270;6.522;2023-08-08T04:39:18;18.30;66.20
28763;DHT22;15918;51.270;6.522;2023-08-08T04:41:44;18.20;66.10
28763;DHT22;15918;51.270;6.522;2023-08-08T04:44:09;18.30;66.30
28763;DHT22;15918;51.270;6.522;2023-08-08T04:46:35;18.20;66.30
28763;DHT22;15918;51.270;6.522;2023-08-08T04:49:00;18.20;66.40
28763;DHT22;15918;51.270;6.522;2023-08-08T04:51:26;18.20;66.50
28763;DHT22;15918;51.270;6.522;2023-08-08T04:53:52;18.20;66.50
28763;DHT22;15918;51.270;6.522;2023-08-08T04:56:17;18.20;66.50
28763;DHT22;15918;51.270;6.522;2023-08-08T04:58:43;18.20;66.60
28763;DHT22;15918;51.270;6.522;2023-08-08T05:01:08;18.30;66.80
28763;DHT22;15918;51.270;6.522;2023-08-08T05:03:37;18.30;66.80
28763;DHT22;15918;51.270;6.522;2023-08-08T05:06:02;18.20;66.90
28763;DHT22;15918;51.270;6.522;2023-08-08T05:08:29;18.20;67.00
28763;DHT22;15918;51.270;6.522;2023-08-08T05:10:54;18.20;67.00
28763;DHT22;15918;51.270;6.522;2023-08-08T05:13:20;18.20;67.10
28763;DHT22;15918;51.270;6.522;2023-08-08T05:15:45;18.30;67.20
28763;DHT22;15918;51.270;6.522;2023-08-08T05:18:11;18.30;67.30
28763;DHT22;15918;51.270;6.522;2023-08-08T05:20:36;18.30;67.20
28763;DHT22;15918;51.270;6.522;2023-08-08T05:23:02;18.30;67.30
28763;DHT22;15918;51.270;6.522;2023-08-08T05:25:28;18.20;67.30
28763;DHT22;15918;51.270;6.522;2023-08-08T05:27:53;18.30;67.40
28763;DHT22;15918;51.270;6.522;2023-08-08T05:30:19;18.20;67.40
28763;DHT22;15918;51.270;6.522;2023-08-08T05:32:45;18.30;67.50
28763;DHT22;15918;51.270;6.522;2023-08-08T05:35:10;18.30;67.50
28763;DHT22;15918;51.270;6.522;2023-08-08T05:37:36;18.30;67.60
28763;DHT22;15918;51.270;6.522;2023-08-08T05:40:01;18.20;67.60
28763;DHT22;15918;51.270;6.522;2023-08-08T05:42:27;18.20;67.70
28763;DHT22;15918;51.270;6.522;2023-08-08T05:44:53;18.20;67.80
28763;DHT22;15918;51.270;6.522;2023-08-08T05:47:18;18.30;67.80
28763;DHT22;15918;51.270;6.522;2023-08-08T05:49:44;18.30;67.90
28763;DHT22;15918;51.270;6.522;2023-08-08T05:52:10;18.20;67.80
28763;DHT22;15918;51.270;6.522;2023-08-08T05:54:35;18.30;67.90
28763;DHT22;15918;51.270;6.522;2023-08-08T05:57:02;18.30;67.90
28763;DHT22;15918;51.270;6.522;2023-08-08T05:59:28;18.20;67.90
28763;DHT22;15918;51.270;6.522;2023-08-08T06:01:53;18.30;68.70
28763;DHT22;15918;51.270;6.522;2023-08-08T06:04:19;18.30;68.00
28763;DHT22;15918;51.270;6.522;2023-08-08T06:06:45;18.20;68.00
28763;DHT22;15918;51.270;6.522;2023-08-08T06:09:12;18.30;68.00
28763;DHT22;15918;51.270;6.522;2023-08-08T06:11:38;18.30;68.00
28763;DHT22;15918;51.270;6.522;2023-08-08T06:14:03;18.30;68.10
28763;DHT22;15918;51.270;6.522;2023-08-08T06:16:29;18.30;68.20
28763;DHT22;15918;51.270;6.522;2023-08-08T06:18:54;18.30;68.20
28763;DHT22;15918;51.270;6.522;2023-08-08T06:21:20;18.30;68.10
28763;DHT22;15918;51.270;6.522;2023-08-08T06:23:45;18.30;68.20
28763;DHT22;15918;51.270;6.522;2023-08-08T06:26:13;18.30;68.20
28763;DHT22;15918;51.270;6.522;2023-08-08T06:28:38;18.30;68.30
28763;DHT22;15918;51.270;6.522;2023-08-08T06:31:04;18.30;68.30
28763;DHT22;15918;51.270;6.522;2023-08-08T06:33:29;18.30;68.30
28763;DHT22;15918;51.270;6.522;2023-08-08T06:35:55;18.30;68.20
28763;DHT22;15918;51.270;6.522;2023-08-08T06:38:21;18.30;68.20
28763;DHT22;15918;51.270;6.522;2023-08-08T06:40:47;18.30;69.00
28763;DHT22;15918;51.270;6.522;2023-08-08T06:43:12;18.30;68.30
28763;DHT22;15918;51.270;6.522;2023-08-08T06:45:39;18.40;68.40
28763;DHT22;15918;51.270;6.522;2023-08-08T06:48:05;18.40;68.50
28763;DHT22;15918;51.270;6.522;2023-08-08T06:50:30;18.40;68.60
28763;DHT22;15918;51.270;6.522;2023-08-08T06:52:56;18.40;68.60
28763;DHT22;15918;51.270;6.522;2023-08-08T06:55:21;18.40;68.60
28763;DHT22;15918;51.270;6.522;2023-08-08T06:57:47;18.40;68.70
28763;DHT22;15918;51.270;6.522;2023-08-08T07:00:13;18.40;68.70
28763;DHT22;15918;51.270;6.522;2023-08-08T07:02:39;18.40;68.60
28763;DHT22;15918;51.270;6.522;2023-08-08T07:05:05;18.50;68.70
28763;DHT22;15918;51.270;6.522;2023-08-08T07:07:32;18.50;68.60
28763;DHT22;15918;51.270;6.522;2023-08-08T07:09:59;18.50;68.50
28763;DHT22;15918;51.270;6.522;2023-08-08T07:12:24;18.50;68.40
28763;DHT22;15918;51.270;6.522;2023-08-08T07:14:50;18.60;68.40
28763;DHT22;15918;51.270;6.522;2023-08-08T07:17:15;18.60;68.40
28763;DHT22;15918;51.270;6.522;2023-08-08T07:19:41;18.60;68.40
28763;DHT22;15918;51.270;6.522;2023-08-08T07:22:07;18.60;68.40
28763;DHT22;15918;51.270;6.522;2023-08-08T07:24:33;18.60;68.40
28763;DHT22;15918;51.270;6.522;2023-08-08T07:26:59;18.60;68.40
28763;DHT22;15918;51.270;6.522;2023-08-08T07:29:25;18.70;68.50
28763;DHT22;15918;51.270;6.522;2023-08-08T07:31:54;18.70;68.60
28763;DHT22;15918;51.270;6.522;2023-08-08T07:34:20;18.70;68.50
28763;DHT22;15918;51.270;6.522;2023-08-08T07:36:46;18.70;68.40
28763;DHT22;15918;51.270;6.522;2023-08-08T07:39:12;18.70;68.50
28763;DHT22;15918;51.270;6.522;2023-08-08T07:41:38;18.80;68.60
28763;DHT22;15918;51.270;6.522;2023-08-08T07:44:05;18.80;68.50
28763;DHT22;15918;51.270;6.522;2023-08-08T07:46:31;18.80;68.50
28763;DHT22;15918;51.270;6.522;2023-08-08T07:48:56;18.80;68.50
28763;DHT22;15918;51.270;6.522;2023-08-08T07:51:25;18.80;68.50
28763;DHT22;15918;51.270;6.522;2023-08-08T07:53:50;18.90;68.40
28763;DHT22;15918;51.270;6.522;2023-08-08T07:56:16;18.90;68.40
28763;DHT22;15918;51.270;6.522;2023-08-08T07:58:42;18.90;68.30
28763;DHT22;15918;51.270;6.522;2023-08-08T08:01:07;18.90;68.30
28763;DHT22;15918;51.270;6.522;2023-08-08T08:03:33;18.90;68.40
28763;DHT22;15918;51.270;6.522;2023-08-08T08:05:58;18.90;68.50
28763;DHT22;15918;51.270;6.522;2023-08-08T08:08:24;18.90;68.50
28763;DHT22;15918;51.270;6.522;2023-08-08T08:10:50;19.00;68.60
28763;DHT22;15918;51.270;6.522;2023-08-08T08:13:16;19.00;68.60
28763;DHT22;15918;51.270;6.522;2023-08-08T08:15:43;19.00;68.60
28763;DHT22;15918;51.270;6.522;2023-08-08T08:18:08;19.00;68.50
28763;DHT22;15918;51.270;6.522;2023-08-08T08:20:34;19.00;68.40
28763;DHT22;15918;51.270;6.522;2023-08-08T08:22:59;19.10;68.50
28763;DHT22;15918;51.270;6.522;2023-08-08T08:25:25;19.10;68.40
28763;DHT22;15918;51.270;6.522;2023-08-08T08:27:51;19.10;68.40
28763;DHT22;15918;51.270;6.522;2023-08-08T08:30:16;19.20;68.40
28763;DHT22;15918;51.270;6.522;2023-08-08T08:32:43;19.20;68.40
28763;DHT22;15918;51.270;6.522;2023-08-08T08:35:09;19.20;68.40
28763;DHT22;15918;51.270;6.522;2023-08-08T08:37:35;19.20;68.30
28763;DHT22;15918;51.270;6.522;2023-08-08T08:40:01;19.30;68.20
28763;DHT22;15918;51.270;6.522;2023-08-08T08:42:27;19.20;68.00
28763;DHT22;15918;51.270;6.522;2023-08-08T08:44:57;19.30;68.00
28763;DHT22;15918;51.270;6.522;2023-08-08T08:47:24;19.30;67.90
28763;DHT22;15918;51.270;6.522;2023-08-08T08:49:52;19.30;68.00
28763;DHT22;15918;51.270;6.522;2023-08-08T08:52:18;19.40;68.10
28763;DHT22;15918;51.270;6.522;2023-08-08T08:54:44;19.40;68.10
28763;DHT22;15918;51.270;6.522;2023-08-08T08:57:10;19.40;68.10
28763;DHT22;15918;51.270;6.522;2023-08-08T08:59:35;19.40;68.10
28763;DHT22;15918;51.270;6.522;2023-08-08T09:02:01;19.40;68.00
28763;DHT22;15918;51.270;6.522;2023-08-08T09:04:28;19.50;67.80
28763;DHT22;15918;51.270;6.522;2023-08-08T09:06:55;19.50;67.70
28763;DHT22;15918;51.270;6.522;2023-08-08T09:09:20;19.50;67.60
28763;DHT22;15918;51.270;6.522;2023-08-08T09:11:50;19.50;67.60
28763;DHT22;15918;51.270;6.522;2023-08-08T09:14:33;19.50;67.60
28763;DHT22;15918;51.270;6.522;2023-08-08T09:17:00;19.60;67.40
28763;DHT22;15918;51.270;6.522;2023-08-08T09:19:25;19.50;67.50
28763;DHT22;15918;51.270;6.522;2023-08-08T09:21:52;19.60;67.40
28763;DHT22;15918;51.270;6.522;2023-08-08T09:24:18;19.60;67.40
28763;DHT22;15918;51.270;6.522;2023-08-08T09:26:44;19.70;67.50
28763;DHT22;15918;51.270;6.522;2023-08-08T09:29:12;19.60;67.40
28763;DHT22;15918;51.270;6.522;2023-08-08T09:31:39;19.70;67.50
28763;DHT22;15918;51.270;6.522;2023-08-08T09:34:05;19.70;67.60
28763;DHT22;15918;51.270;6.522;2023-08-08T09:36:31;19.70;67.60
28763;DHT22;15918;51.270;6.522;2023-08-08T09:38:57;19.70;67.60
28763;DHT22;15918;51.270;6.522;2023-08-08T09:41:24;19.80;67.50
28763;DHT22;15918;51.270;6.522;2023-08-08T09:43:50;19.80;67.30
28763;DHT22;15918;51.270;6.522;2023-08-08T09:46:18;19.80;67.10
28763;DHT22;15918;51.270;6.522;2023-08-08T09:48:44;19.80;66.90
28763;DHT22;15918;51.270;6.522;2023-08-08T09:51:10;19.80;66.80
28763;DHT22;15918;51.270;6.522;2023-08-08T09:53:36;19.90;66.80
28763;DHT22;15918;51.270;6.522;2023-08-08T09:56:03;19.90;66.60
28763;DHT22;15918;51.270;6.522;2023-08-08T09:58:29;19.90;66.40
28763;DHT22;15918;51.270;6.522;2023-08-08T10:00:55;19.90;66.30
28763;DHT22;15918;51.270;6.522;2023-08-08T10:03:21;19.90;66.20
28763;DHT22;15918;51.270;6.522;2023-08-08T10:05:48;20.00;66.10
28763;DHT22;15918;51.270;6.522;2023-08-08T10:08:18;20.00;65.90
28763;DHT22;15918;51.270;6.522;2023-08-08T10:10:46;20.00;65.70
28763;DHT22;15918;51.270;6.522;2023-08-08T10:13:22;20.00;65.80
28763;DHT22;15918;51.270;6.522;2023-08-08T10:15:49;20.00;65.50
28763;DHT22;15918;51.270;6.522;2023-08-08T10:18:14;20.00;65.50
28763;DHT22;15918;51.270;6.522;2023-08-08T10:20:43;20.00;65.20
28763;DHT22;15918;51.270;6.522;2023-08-08T10:23:10;20.00;65.00
28763;DHT22;15918;51.270;6.522;2023-08-08T10:25:35;20.00;65.10
28763;DHT22;15918;51.270;6.522;2023-08-08T10:28:09;20.00;65.20
28763;DHT22;15918;51.270;6.522;2023-08-08T10:33:22;20.10;65.30
28763;DHT22;15918;51.270;6.522;2023-08-08T10:36:03;20.00;65.60
28763;DHT22;15918;51.270;6.522;2023-08-08T10:38:43;20.00;65.70
28763;DHT22;15918;51.270;6.522;2023-08-08T10:41:13;20.00;65.90
28763;DHT22;15918;51.270;6.522;2023-08-08T10:43:48;20.00;66.00
28763;DHT22;15918;51.270;6.522;2023-08-08T10:46:28;20.00;66.00
28763;DHT22;15918;51.270;6.522;2023-08-08T10:48:56;20.00;66.00
28763;DHT22;15918;51.270;6.522;2023-08-08T10:51:22;20.00;66.20
28763;DHT22;15918;51.270;6.522;2023-08-08T10:53:51;20.00;66.10
28763;DHT22;15918;51.270;6.522;2023-08-08T10:56:18;20.00;66.10
28763;DHT22;15918;51.270;6.522;2023-08-08T10:58:48;20.10;66.20
28763;DHT22;15918;51.270;6.522;2023-08-08T11:01:14;20.00;66.30
28763;DHT22;15918;51.270;6.522;2023-08-08T11:03:43;20.00;66.50
28763;DHT22;15918;51.270;6.522;2023-08-08T11:06:10;20.00;66.60
28763;DHT22;15918;51.270;6.522;2023-08-08T11:08:37;20.10;66.60
28763;DHT22;15918;51.270;6.522;2023-08-08T11:11:04;20.10;66.70
28763;DHT22;15918;51.270;6.522;2023-08-08T11:13:30;20.10;66.70
28763;DHT22;15918;51.270;6.522;2023-08-08T11:15:56;20.10;66.60
28763;DHT22;15918;51.270;6.522;2023-08-08T11:18:22;20.10;66.30
28763;DHT22;15918;51.270;6.522;2023-08-08T11:20:49;20.10;66.20
28763;DHT22;15918;51.270;6.522;2023-08-08T11:23:15;20.10;65.80
28763;DHT22;15918;51.270;6.522;2023-08-08T11:25:42;20.10;65.70
28763;DHT22;15918;51.270;6.522;2023-08-08T11:28:08;20.20;65.80
28763;DHT22;15918;51.270;6.522;2023-08-08T11:30:37;20.20;65.60
28763;DHT22;15918;51.270;6.522;2023-08-08T11:33:04;20.20;66.10
28763;DHT22;15918;51.270;6.522;2023-08-08T11:35:30;20.20;65.40
28763;DHT22;15918;51.270;6.522;2023-08-08T11:37:57;20.20;65.20
28763;DHT22;15918;51.270;6.522;2023-08-08T11:40:25;20.20;65.00
28763;DHT22;15918;51.270;6.522;2023-08-08T11:42:52;20.20;65.00
28763;DHT22;15918;51.270;6.522;2023-08-08T11:45:18;20.20;64.90
28763;DHT22;15918;51.270;6.522;2023-08-08T11:47:48;20.20;64.90
28763;DHT22;15918;51.270;6.522;2023-08-08T11:50:14;20.20;65.00
28763;DHT22;15918;51.270;6.522;2023-08-08T11:52:42;20.10;65.00
28763;DHT22;15918;51.270;6.522;2023-08-08T11:55:11;20.20;65.20
28763;DHT22;15918;51.270;6.522;2023-08-08T11:57:38;20.20;65.20
28763;DHT22;15918;51.270;6.522;2023-08-08T12:00:09;20.20;65.40
28763;DHT22;15918;51.270;6.522;2023-08-08T12:02:44;20.20;65.40
28763;DHT22;15918;51.270;6.522;2023-08-08T12:05:12;20.10;65.40
28763;DHT22;15918;51.270;6.522;2023-08-08T12:07:38;20.20;65.40
28763;DHT22;15918;51.270;6.522;2023-08-08T12:10:16;20.20;65.40
28763;DHT22;15918;51.270;6.522;2023-08-08T12:12:43;20.20;65.10
28763;DHT22;15918;51.270;6.522;2023-08-08T12:15:09;20.10;65.30
28763;DHT22;15918;51.270;6.522;2023-08-08T12:17:36;20.20;65.50
28763;DHT22;15918;51.270;6.522;2023-08-08T12:20:07;20.10;65.60
28763;DHT22;15918;51.270;6.522;2023-08-08T12:22:33;20.20;65.60
28763;DHT22;15918;51.270;6.522;2023-08-08T12:25:00;20.20;65.50
28763;DHT22;15918;51.270;6.522;2023-08-08T12:27:25;20.20;65.40
28763;DHT22;15918;51.270;6.522;2023-08-08T12:29:51;20.20;65.50
28763;DHT22;15918;51.270;6.522;2023-08-08T12:32:20;20.30;65.60
28763;DHT22;15918;51.270;6.522;2023-08-08T12:34:49;20.30;65.50
28763;DHT22;15918;51.270;6.522;2023-08-08T12:37:15;20.30;65.00
28763;DHT22;15918;51.270;6.522;2023-08-08T12:39:40;20.30;64.90
28763;DHT22;15918;51.270;6.522;2023-08-08T12:42:06;20.30;64.30
28763;DHT22;15918;51.270;6.522;2023-08-08T12:44:32;20.40;63.40
28763;DHT22;15918;51.270;6.522;2023-08-08T12:46:57;20.40;62.70
28763;DHT22;15918;51.270;6.522;2023-08-08T12:49:23;20.40;62.60
28763;DHT22;15918;51.270;6.522;2023-08-08T12:51:50;20.40;62.80
28763;DHT22;15918;51.270;6.522;2023-08-08T12:54:16;20.50;63.10
28763;DHT22;15918;51.270;6.522;2023-08-08T12:56:41;20.40;63.40
28763;DHT22;15918;51.270;6.522;2023-08-08T12:59:08;20.50;63.70
28763;DHT22;15918;51.270;6.522;2023-08-08T13:01:33;20.50;63.90
28763;DHT22;15918;51.270;6.522;2023-08-08T13:03:59;20.50;63.90
28763;DHT22;15918;51.270;6.522;2023-08-08T13:06:25;20.50;64.00
28763;DHT22;15918;51.270;6.522;2023-08-08T13:08:50;20.50;64.20
28763;DHT22;15918;51.270;6.522;2023-08-08T13:11:16;20.50;64.30
28763;DHT22;15918;51.270;6.522;2023-08-08T13:13:42;20.60;64.00
28763;DHT22;15918;51.270;6.522;2023-08-08T13:16:07;20.60;63.80
28763;DHT22;15918;51.270;6.522;2023-08-08T13:18:33;20.60;63.50
28763;DHT22;15918;51.270;6.522;2023-08-08T13:20:58;20.60;63.40
28763;DHT22;15918;51.270;6.522;2023-08-08T13:23:24;20.60;63.20
28763;DHT22;15918;51.270;6.522;2023-08-08T13:25:50;20.60;62.60
28763;DHT22;15918;51.270;6.522;2023-08-08T13:28:16;20.60;62.50
28763;DHT22;15918;51.270;6.522;2023-08-08T13:30:42;20.60;62.60
28763;DHT22;15918;51.270;6.522;2023-08-08T13:33:09;20.60;62.60
28763;DHT22;15918;51.270;6.522;2023-08-08T13:35:34;20.60;62.60
28763;DHT22;15918;51.270;6.522;2023-08-08T13:38:00;20.60;62.40
28763;DHT22;15918;51.270;6.522;2023-08-08T13:40:26;20.60;62.60
28763;DHT22;15918;51.270;6.522;2023-08-08T13:42:52;20.70;62.90
28763;DHT22;15918;51.270;6.522;2023-08-08T13:45:19;20.60;63.20
28763;DHT22;15918;51.270;6.522;2023-08-08T13:47:45;20.60;63.20
28763;DHT22;15918;51.270;6.522;2023-08-08T13:50:11;20.70;63.30
28763;DHT22;15918;51.270;6.522;2023-08-08T13:52:39;20.70;63.00
28763;DHT22;15918;51.270;6.522;2023-08-08T13:55:05;20.70;62.90
28763;DHT22;15918;51.270;6.522;2023-08-08T13:57:31;20.70;62.70
28763;DHT22;15918;51.270;6.522;2023-08-08T13:59:57;20.70;62.70
28763;DHT22;15918;51.270;6.522;2023-08-08T14:02:23;20.70;62.80
28763;DHT22;15918;51.270;6.522;2023-08-08T14:04:48;20.70;62.80
28763;DHT22;15918;51.270;6.522;2023-08-08T14:07:14;20.70;62.70
28763;DHT22;15918;51.270;6.522;2023-08-08T14:09:40;20.70;62.40
28763;DHT22;15918;51.270;6.522;2023-08-08T14:12:06;20.70;61.90
28763;DHT22;15918;51.270;6.522;2023-08-08T14:14:31;20.70;61.80
28763;DHT22;15918;51.270;6.522;2023-08-08T14:16:58;20.70;61.60
28763;DHT22;15918;51.270;6.522;2023-08-08T14:19:23;20.70;61.70
28763;DHT22;15918;51.270;6.522;2023-08-08T14:21:49;20.70;61.30
28763;DHT22;15918;51.270;6.522;2023-08-08T14:24:15;20.70;61.40
28763;DHT22;15918;51.270;6.522;2023-08-08T14:26:40;20.70;61.20
28763;DHT22;15918;51.270;6.522;2023-08-08T14:29:06;20.70;60.90
28763;DHT22;15918;51.270;6.522;2023-08-08T14:31:31;20.70;60.90
28763;DHT22;15918;51.270;6.522;2023-08-08T14:33:57;20.80;60.80
28763;DHT22;15918;51.270;6.522;2023-08-08T14:36:23;20.80;60.80
28763;DHT22;15918;51.270;6.522;2023-08-08T14:38:48;20.70;60.70
28763;DHT22;15918;51.270;6.522;2023-08-08T14:41:14;20.80;60.60
28763;DHT22;15918;51.270;6.522;2023-08-08T14:43:40;20.70;60.30
28763;DHT22;15918;51.270;6.522;2023-08-08T14:46:05;20.70;60.00
28763;DHT22;15918;51.270;6.522;2023-08-08T14:48:31;20.70;59.90
28763;DHT22;15918;51.270;6.522;2023-08-08T14:50:59;20.80;59.90
28763;DHT22;15918;51.270;6.522;2023-08-08T14:53:24;20.80;59.70
28763;DHT22;15918;51.270;6.522;2023-08-08T14:55:50;20.80;59.40
28763;DHT22;15918;51.270;6.522;2023-08-08T14:58:15;20.80;58.40
28763;DHT22;15918;51.270;6.522;2023-08-08T15:00:41;20.80;57.60
28763;DHT22;15918;51.270;6.522;2023-08-08T15:03:07;20.90;56.90
28763;DHT22;15918;51.270;6.522;2023-08-08T15:05:33;20.90;56.70
28763;DHT22;15918;51.270;6.522;2023-08-08T15:07:59;21.00;56.80
28763;DHT22;15918;51.270;6.522;2023-08-08T15:10:24;21.00;56.90
28763;DHT22;15918;51.270;6.522;2023-08-08T15:12:50;21.00;57.20
28763;DHT22;15918;51.270;6.522;2023-08-08T15:15:16;21.00;57.50
28763;DHT22;15918;51.270;6.522;2023-08-08T15:17:42;20.90;57.90
28763;DHT22;15918;51.270;6.522;2023-08-08T15:20:09;20.90;58.00
28763;DHT22;15918;51.270;6.522;2023-08-08T15:22:36;20.90;58.20
28763;DHT22;15918;51.270;6.522;2023-08-08T15:25:02;20.90;58.30
28763;DHT22;15918;51.270;6.522;2023-08-08T15:27:27;20.90;58.30
28763;DHT22;15918;51.270;6.522;2023-08-08T15:29:53;20.90;58.30